Time;durP1;ratioP1;P1;durP2;ratioP2;P2;SDS_P1;SDS_P2;PMS_P1;PMS_P2;Temp;Humidity;BMP_temperature;BMP_pressure;BME280_temperature;BME280_humidity;BME280_pressure;Samples;Min_cycle;Max_cycle;Signal;HPM_P1;HPM_P2
2021/03/12 00:02:09;;;;;;;4.55;0.70;;;6.60;99.90;;;;;;5031581;28;20029;-70
2021/03/12 00:04:35;;;;;;;1.77;0.43;;;6.70;99.90;;;;;;5025750;28;20351;-71
2021/03/12 00:07:01;;;;;;;1.52;0.68;;;6.70;99.90;;;;;;5013497;28;20097;-71
2021/03/12 00:09:27;;;;;;;1.48;0.63;;;6.80;99.90;;;;;;5013159;28;20071;-70
2021/03/12 00:11:52;;;;;;;1.45;0.70;;;6.90;99.90;;;;;;5012734;28;20034;-70
2021/03/12 00:14:19;;;;;;;3.55;0.55;;;7.00;99.90;;;;;;5011520;28;20569;-71
2021/03/12 00:16:45;;;;;;;1.23;0.50;;;7.10;99.90;;;;;;5012232;28;20109;-69
2021/03/12 00:19:11;;;;;;;2.92;0.70;;;7.20;99.90;;;;;;5012528;28;20061;-70
2021/03/12 00:21:37;;;;;;;2.58;0.60;;;7.20;99.90;;;;;;5012763;28;20463;-71
2021/03/12 00:24:03;;;;;;;1.65;0.70;;;7.30;99.90;;;;;;5011583;28;20042;-70
2021/03/12 00:26:28;;;;;;;2.65;0.40;;;7.40;99.90;;;;;;5012187;28;20030;-70
2021/03/12 00:28:54;;;;;;;1.55;0.90;;;7.50;99.90;;;;;;5012002;28;20065;-70
2021/03/12 00:31:19;;;;;;;4.40;0.70;;;7.60;99.90;;;;;;5012538;28;20037;-71
2021/03/12 00:33:45;;;;;;;3.22;0.50;;;7.70;99.90;;;;;;5012258;28;20752;-70
2021/03/12 00:36:11;;;;;;;2.58;0.60;;;7.70;99.90;;;;;;5012341;28;20113;-70
2021/03/12 00:38:36;;;;;;;2.67;0.85;;;7.70;99.90;;;;;;5012313;28;20021;-70
2021/03/12 00:41:06;;;;;;;1.48;0.47;;;7.80;99.90;;;;;;5012561;28;20109;-70
2021/03/12 00:43:31;;;;;;;2.70;0.80;;;7.80;99.90;;;;;;5018065;28;20083;-70
2021/03/12 00:46:03;;;;;;;1.67;0.68;;;7.90;99.90;;;;;;5031145;28;20041;-70
2021/03/12 00:48:29;;;;;;;1.88;0.73;;;7.90;99.90;;;;;;5027072;28;20018;-70
2021/03/12 00:50:55;;;;;;;2.95;0.82;;;7.90;99.90;;;;;;5029931;28;20535;-69
2021/03/12 00:53:21;;;;;;;1.92;0.52;;;8.00;91.70;;;;;;5027152;28;20036;-69
2021/03/12 00:55:47;;;;;;;2.88;1.38;;;8.00;81.90;;;;;;5024842;28;20026;-69
2021/03/12 00:58:13;;;;;;;3.85;0.63;;;8.00;92.00;;;;;;5023192;28;20033;-70
2021/03/12 01:00:40;;;;;;;2.17;0.60;;;8.00;96.10;;;;;;5015582;28;20598;-70
2021/03/12 01:03:07;;;;;;;3.47;1.40;;;8.00;99.70;;;;;;5014392;28;20029;-70
2021/03/12 01:05:33;;;;;;;2.28;0.80;;;8.00;99.90;;;;;;5013623;28;20087;-70
2021/03/12 01:07:59;;;;;;;3.17;0.60;;;8.00;99.90;;;;;;5012895;28;20096;-71
2021/03/12 01:10:26;;;;;;;3.60;1.17;;;8.00;99.90;;;;;;5013001;28;20018;-70
2021/03/12 01:12:52;;;;;;;1.75;0.98;;;8.00;82.70;;;;;;5012649;28;20094;-70
2021/03/12 01:15:19;;;;;;;3.95;0.60;;;8.00;95.80;;;;;;5016541;28;20526;-72
2021/03/12 01:17:46;;;;;;;5.15;1.33;;;8.00;76.40;;;;;;5016795;28;20057;-69
2021/03/12 01:20:19;;;;;;;2.38;1.02;;;7.90;87.80;;;;;;5017419;28;20030;-69
2021/03/12 01:22:46;;;;;;;4.15;1.00;;;7.90;52.40;;;;;;5016768;28;20022;-70
2021/03/12 01:25:17;;;;;;;2.83;0.80;;;7.80;68.80;;;;;;5016922;28;20112;-71
2021/03/12 01:27:43;;;;;;;2.15;0.43;;;7.70;93.80;;;;;;5017029;28;20553;-69
2021/03/12 01:30:32;;;;;;;5.05;1.23;;;7.80;47.00;;;;;;5016987;28;20113;-69
2021/03/12 01:32:57;;;;;;;2.75;0.60;;;7.80;35.20;;;;;;5017318;28;20041;-70
2021/03/12 01:35:23;;;;;;;2.83;0.90;;;7.90;1.00;;;;;;5016124;28;20030;-69
2021/03/12 01:37:48;;;;;;;2.50;1.00;;;7.90;1.00;;;;;;5016129;28;20026;-69
2021/03/12 01:40:17;;;;;;;3.20;0.57;;;7.80;1.00;;;;;;5030150;28;20084;-70
2021/03/12 01:42:43;;;;;;;2.28;0.63;;;7.90;1.00;;;;;;5028151;28;20029;-70
2021/03/12 01:45:12;;;;;;;0.55;0.40;;;7.80;1.00;;;;;;5021171;28;20105;-69
2021/03/12 01:47:38;;;;;;;0.60;0.38;;;7.90;1.00;;;;;;5018591;28;20044;-70
2021/03/12 01:50:06;;;;;;;2.90;0.88;;;8.00;1.00;;;;;;5021675;28;20021;-70
2021/03/12 01:52:32;;;;;;;3.78;1.23;;;8.00;99.90;;;;;;5016852;28;20388;-70
2021/03/12 01:54:58;;;;;;;5.97;1.10;;;8.00;99.90;;;;;;5024512;28;20022;-69
2021/03/12 01:57:24;;;;;;;4.25;0.93;;;7.90;99.90;;;;;;5036561;28;20029;-70
2021/03/12 01:59:50;;;;;;;3.88;1.27;;;7.90;1.00;;;;;;5027327;28;20040;-70
2021/03/12 02:02:16;;;;;;;2.05;1.10;;;7.90;1.00;;;;;;5015395;28;20026;-70
2021/03/12 02:04:42;;;;;;;4.68;1.00;;;7.80;5.40;;;;;;5014256;28;20397;-70
2021/03/12 02:07:07;;;;;;;2.22;0.75;;;7.70;31.20;;;;;;5014509;28;20022;-70
2021/03/12 02:09:33;;;;;;;4.43;1.13;;;7.60;9.10;;;;;;5017642;28;20026;-70
2021/03/12 02:12:25;;;;;;;4.40;0.90;;;7.50;37.30;;;;;;5025447;28;20385;-69
2021/03/12 02:15:15;;;;;;;3.97;0.88;;;7.40;84.00;;;;;;5015638;28;20017;-68
2021/03/12 02:18:01;;;;;;;3.30;0.80;;;7.30;79.50;;;;;;5015244;28;20037;-70
2021/03/12 02:20:41;;;;;;;2.95;0.77;;;7.20;92.90;;;;;;5023351;28;20014;-70
2021/03/12 02:23:37;;;;;;;3.22;0.82;;;7.20;99.90;;;;;;5023187;28;20056;-69
2021/03/12 02:26:09;;;;;;;1.08;0.43;;;7.20;99.90;;;;;;5022976;28;20022;-72
2021/03/12 02:28:36;;;;;;;2.55;0.73;;;7.20;99.90;;;;;;5013469;28;20113;-70
2021/03/12 02:31:04;;;;;;;0.73;0.43;;;7.10;99.90;;;;;;5024903;28;20095;-69
2021/03/12 02:33:31;;;;;;;2.90;0.57;;;7.20;97.60;;;;;;5025811;28;20034;-70
2021/03/12 02:35:58;;;;;;;4.10;1.00;;;7.20;99.90;;;;;;5025859;28;20025;-69
2021/03/12 02:38:26;;;;;;;4.18;0.98;;;7.20;99.90;;;;;;5023695;28;20600;-70
2021/03/12 02:40:54;;;;;;;3.88;0.70;;;7.10;99.90;;;;;;5025103;28;20029;-69
2021/03/12 02:43:20;;;;;;;3.47;0.75;;;7.10;99.90;;;;;;5029339;28;20037;-70
2021/03/12 02:45:47;;;;;;;2.30;0.70;;;7.10;99.90;;;;;;5021803;28;20160;-71
2021/03/12 02:48:13;;;;;;;1.92;0.65;;;7.10;90.50;;;;;;5015188;28;20473;-71
2021/03/12 02:50:39;;;;;;;2.63;0.50;;;7.10;91.60;;;;;;5020553;28;20177;-70
2021/03/12 02:53:06;;;;;;;5.85;1.65;;;7.00;80.80;;;;;;5013643;28;20025;-69
2021/03/12 02:55:32;;;;;;;3.38;0.60;;;6.90;94.10;;;;;;5015650;28;20029;-70
2021/03/12 02:57:58;;;;;;;2.33;0.73;;;6.80;99.90;;;;;;5014011;28;20033;-69
2021/03/12 03:00:24;;;;;;;4.38;1.10;;;6.80;97.30;;;;;;5008233;28;20030;-69
2021/03/12 03:02:50;;;;;;;7.30;1.02;;;6.80;91.40;;;;;;5013405;28;20065;-69
2021/03/12 03:05:16;;;;;;;1.52;0.93;;;6.80;79.50;;;;;;5013489;28;20549;-70
2021/03/12 03:07:46;;;;;;;3.58;0.60;;;6.70;99.90;;;;;;5012535;28;20029;-70
2021/03/12 03:10:12;;;;;;;2.28;1.10;;;6.70;73.20;;;;;;5020673;28;20076;-70
2021/03/12 03:12:38;;;;;;;2.90;0.70;;;6.70;47.60;;;;;;5022315;28;20030;-70
2021/03/12 03:15:06;;;;;;;2.42;0.60;;;6.70;25.40;;;;;;5022572;28;20029;-69
2021/03/12 03:17:35;;;;;;;3.03;1.00;;;6.70;17.70;;;;;;5023703;28;20402;-71
2021/03/12 03:20:03;;;;;;;3.30;0.55;;;6.80;1.00;;;;;;5024794;28;20026;-72
2021/03/12 03:22:29;;;;;;;3.20;0.70;;;6.90;1.00;;;;;;5026381;28;20038;-72
2021/03/12 03:24:55;;;;;;;3.83;0.52;;;6.80;1.00;;;;;;5024007;28;20496;-72
2021/03/12 03:27:21;;;;;;;2.80;0.60;;;6.80;1.00;;;;;;5019165;28;20022;-71
2021/03/12 03:29:46;;;;;;;1.70;0.70;;;6.80;1.00;;;;;;5021783;28;20061;-71
2021/03/12 03:32:14;;;;;;;2.58;1.90;;;6.80;1.00;;;;;;5021803;28;20034;-70
2021/03/12 03:34:40;;;;;;;2.03;1.13;;;6.80;15.50;;;;;;5033207;28;20037;-70
2021/03/12 03:37:06;;;;;;;2.35;0.63;;;6.80;16.20;;;;;;5027355;28;20061;-70
2021/03/12 03:39:31;;;;;;;1.75;0.65;;;6.80;1.00;;;;;;5030282;28;20026;-70
2021/03/12 03:42:02;;;;;;;2.72;0.98;;;6.80;1.00;;;;;;5018161;28;20474;-70
2021/03/12 03:44:30;;;;;;;1.65;0.73;;;6.80;16.10;;;;;;5029124;28;20026;-72
2021/03/12 03:46:59;;;;;;;3.22;0.65;;;6.80;13.80;;;;;;5021928;28;20114;-70
2021/03/12 03:49:28;;;;;;;3.47;0.60;;;6.80;1.00;;;;;;5028278;28;20504;-71
2021/03/12 03:51:54;;;;;;;1.10;0.68;;;6.90;1.00;;;;;;5011596;28;20021;-69
2021/03/12 03:54:21;;;;;;;3.95;0.90;;;7.00;99.90;;;;;;5013880;28;20107;-69
2021/03/12 03:56:49;;;;;;;2.05;1.05;;;7.00;99.90;;;;;;5017134;28;20033;-69
2021/03/12 03:59:15;;;;;;;1.25;0.70;;;7.10;99.90;;;;;;5014027;28;20494;-69
2021/03/12 04:01:42;;;;;;;2.95;0.90;;;7.10;99.90;;;;;;5005754;28;20036;-70
2021/03/12 04:04:09;;;;;;;5.07;0.65;;;7.00;99.90;;;;;;5014414;28;20034;-69
2021/03/12 04:06:36;;;;;;;3.90;0.90;;;7.00;99.90;;;;;;5014756;28;20018;-69
2021/03/12 04:09:03;;;;;;;3.85;0.80;;;7.00;99.90;;;;;;5012659;28;20041;-68
2021/03/12 04:11:32;;;;;;;4.35;0.60;;;7.00;99.90;;;;;;5017480;28;20022;-69
2021/03/12 04:14:00;;;;;;;7.65;1.25;;;7.00;99.90;;;;;;5010765;28;20460;-69
2021/03/12 04:16:26;;;;;;;2.25;0.80;;;7.00;99.90;;;;;;5015482;28;20486;-70
2021/03/12 04:18:53;;;;;;;3.30;0.60;;;7.10;1.00;;;;;;5017128;28;20037;-69
2021/03/12 04:21:19;;;;;;;4.90;0.80;;;7.00;92.50;;;;;;5017017;28;20034;-69
2021/03/12 04:23:45;;;;;;;4.18;0.70;;;7.00;14.90;;;;;;5021566;28;20092;-69
2021/03/12 04:26:12;;;;;;;2.90;1.00;;;7.10;1.00;;;;;;5016934;28;20532;-69
2021/03/12 04:28:38;;;;;;;7.10;1.23;;;7.10;1.00;;;;;;5023170;28;20196;-69
2021/03/12 04:31:04;;;;;;;2.90;0.80;;;7.10;1.00;;;;;;5023492;28;20036;-70
2021/03/12 04:33:30;;;;;;;1.48;0.50;;;7.00;1.00;;;;;;5020749;28;20029;-68
2021/03/12 04:35:55;;;;;;;3.17;1.05;;;7.10;99.90;;;;;;5014302;28;20058;-69
2021/03/12 04:38:23;;;;;;;5.05;1.40;;;7.10;99.90;;;;;;5013520;28;20393;-69
2021/03/12 04:40:50;;;;;;;3.20;0.52;;;7.00;99.90;;;;;;5026283;28;20032;-70
2021/03/12 04:43:16;;;;;;;4.63;1.40;;;7.00;97.00;;;;;;5021609;28;20085;-69
2021/03/12 04:45:43;;;;;;;5.85;1.25;;;7.00;99.90;;;;;;5020070;28;20381;-70
2021/03/12 04:48:10;;;;;;;4.18;0.88;;;7.00;99.90;;;;;;5019754;28;20037;-69
2021/03/12 04:50:36;;;;;;;2.75;0.90;;;7.00;99.90;;;;;;5021144;28;20512;-69
2021/03/12 04:53:02;;;;;;;3.92;1.40;;;7.00;99.90;;;;;;5034476;28;20481;-69
2021/03/12 04:55:28;;;;;;;3.97;1.02;;;7.00;99.90;;;;;;5037306;23;20050;-72
2021/03/12 04:57:54;;;;;;;4.45;0.93;;;7.00;1.00;;;;;;5015364;28;20116;-72
2021/03/12 05:00:21;;;;;;;2.13;0.70;;;7.00;99.90;;;;;;5018947;28;20402;-72
2021/03/12 05:02:47;;;;;;;2.55;0.77;;;7.00;1.00;;;;;;5015474;28;20071;-73
2021/03/12 05:05:13;;;;;;;3.75;0.68;;;6.90;1.00;;;;;;5018010;28;20041;-72
2021/03/12 05:07:41;;;;;;;5.95;0.88;;;6.90;1.00;;;;;;5018306;28;20054;-71
2021/03/12 05:10:08;;;;;;;2.70;0.80;;;6.90;1.00;;;;;;5024102;28;20032;-72
2021/03/12 05:12:33;;;;;;;4.65;1.02;;;6.80;1.00;;;;;;5023642;28;20026;-72
2021/03/12 05:15:01;;;;;;;4.93;1.13;;;6.80;1.00;;;;;;5015415;28;20033;-72
2021/03/12 05:17:27;;;;;;;2.92;0.70;;;6.80;1.00;;;;;;5015491;28;20436;-73
2021/03/12 05:19:53;;;;;;;1.70;0.75;;;6.80;1.00;;;;;;5015598;28;20092;-72
2021/03/12 05:22:18;;;;;;;5.15;0.88;;;6.80;1.00;;;;;;5015257;28;20041;-73
2021/03/12 05:24:44;;;;;;;3.60;1.00;;;6.80;1.00;;;;;;5015628;28;20022;-72
2021/03/12 05:27:10;;;;;;;6.00;0.73;;;6.80;1.00;;;;;;5016363;28;20030;-72
2021/03/12 05:29:36;;;;;;;2.75;0.98;;;6.80;1.00;;;;;;5018660;28;20057;-73
2021/03/12 05:32:01;;;;;;;4.93;1.48;;;6.80;16.00;;;;;;5018938;28;20049;-73
2021/03/12 05:34:27;;;;;;;3.28;0.93;;;6.80;20.30;;;;;;5016953;28;20034;-72
2021/03/12 05:36:53;;;;;;;5.38;1.55;;;6.80;90.50;;;;;;5015847;28;20029;-73
2021/03/12 05:39:22;;;;;;;8.93;1.75;;;6.70;99.90;;;;;;5021631;28;20033;-72
2021/03/12 05:41:49;;;;;;;6.78;1.00;;;6.70;99.90;;;;;;5025581;28;20083;-72
2021/03/12 05:44:16;;;;;;;5.05;0.90;;;6.70;99.90;;;;;;5021082;28;20030;-71
2021/03/12 05:46:42;;;;;;;2.45;0.90;;;6.70;99.90;;;;;;5015106;28;20332;-72
2021/03/12 05:49:09;;;;;;;4.55;0.90;;;6.70;99.90;;;;;;5027584;28;20057;-71
2021/03/12 05:51:36;;;;;;;3.38;0.80;;;6.70;99.90;;;;;;5026358;28;20058;-72
2021/03/12 05:54:03;;;;;;;2.88;0.70;;;6.70;99.90;;;;;;5026611;28;20038;-72
2021/03/12 05:56:29;;;;;;;9.73;1.30;;;6.70;99.90;;;;;;5028201;28;20057;-74
2021/03/12 05:58:56;;;;;;;4.50;0.80;;;6.70;99.90;;;;;;5032329;28;20026;-72
2021/03/12 06:01:22;;;;;;;2.20;1.00;;;6.70;99.90;;;;;;5029868;28;20061;-73
2021/03/12 06:03:48;;;;;;;5.63;2.47;;;6.70;99.90;;;;;;5026890;28;20133;-71
2021/03/12 06:06:13;;;;;;;3.85;1.73;;;6.70;99.90;;;;;;5027417;28;20030;-72
2021/03/12 06:08:39;;;;;;;2.28;0.65;;;6.70;99.90;;;;;;5027696;28;20079;-71
2021/03/12 06:11:04;;;;;;;4.38;0.75;;;6.70;99.90;;;;;;5022097;28;20489;-71
2021/03/12 06:13:30;;;;;;;3.00;0.95;;;6.80;99.90;;;;;;5024647;28;20032;-72
2021/03/12 06:15:56;;;;;;;3.30;1.13;;;6.80;99.90;;;;;;5031221;28;20073;-72
2021/03/12 06:18:26;;;;;;;2.75;0.80;;;6.80;99.90;;;;;;5034635;28;20034;-72
2021/03/12 06:20:53;;;;;;;3.17;0.63;;;6.80;99.90;;;;;;5041682;28;20034;-73
2021/03/12 06:23:51;;;;;;;4.40;0.82;;;6.80;99.90;;;;;;5030860;28;20045;-72
2021/03/12 06:26:17;;;;;;;4.55;1.10;;;6.90;99.90;;;;;;4987966;28;20045;-72
2021/03/12 06:28:42;;;;;;;5.35;1.20;;;6.90;99.90;;;;;;5014966;28;20025;-72
2021/03/12 06:31:27;;;;;;;4.00;1.00;;;7.00;99.90;;;;;;5020651;28;20030;-72
2021/03/12 06:34:07;;;;;;;2.67;1.45;;;7.00;99.90;;;;;;5013715;28;20080;-71
2021/03/12 06:36:33;;;;;;;2.05;0.77;;;7.10;99.90;;;;;;5019348;28;20029;-71
2021/03/12 06:38:58;;;;;;;2.03;0.70;;;7.20;99.90;;;;;;5014801;28;20028;-71
2021/03/12 06:41:40;;;;;;;3.25;0.90;;;7.20;99.90;;;;;;5020687;28;20102;-73
2021/03/12 06:44:27;;;;;;;7.00;0.90;;;7.20;99.90;;;;;;5013301;28;20501;-72
2021/03/12 06:46:53;;;;;;;3.47;1.00;;;7.20;99.90;;;;;;5013703;28;20494;-71
2021/03/12 06:49:19;;;;;;;4.70;0.77;;;7.30;99.90;;;;;;5018387;28;20060;-72
2021/03/12 06:51:56;;;;;;;2.80;1.08;;;7.40;99.90;;;;;;5019375;28;20041;-72
2021/03/12 06:54:22;;;;;;;3.22;0.70;;;7.40;99.90;;;;;;5013055;28;20116;-72
2021/03/12 06:56:48;;;;;;;4.65;1.02;;;7.50;99.90;;;;;;5019264;28;20042;-72
2021/03/12 06:59:23;;;;;;;0.98;0.50;;;7.50;99.90;;;;;;5016782;28;20033;-71
2021/03/12 07:01:56;;;;;;;3.63;1.02;;;7.50;99.90;;;;;;5020429;28;20366;-72
2021/03/12 07:04:22;;;;;;;2.83;0.80;;;7.60;99.90;;;;;;5018953;28;20377;-72
2021/03/12 07:06:50;;;;;;;2.00;0.88;;;7.50;99.90;;;;;;5019065;28;20024;-72
2021/03/12 07:09:17;;;;;;;4.47;0.77;;;7.40;99.90;;;;;;5015685;28;20032;-72
2021/03/12 07:11:43;;;;;;;5.95;1.55;;;7.30;99.90;;;;;;5018651;28;20026;-72
2021/03/12 07:14:09;;;;;;;1.38;0.80;;;7.40;99.90;;;;;;5016760;28;20497;-73
2021/03/12 07:16:35;;;;;;;3.08;1.10;;;7.50;99.90;;;;;;5016009;28;20026;-73
2021/03/12 07:19:01;;;;;;;2.30;0.88;;;7.50;1.00;;;;;;5019474;28;20102;-73
2021/03/12 07:21:29;;;;;;;2.40;0.75;;;7.60;99.90;;;;;;5020175;28;20105;-71
2021/03/12 07:24:02;;;;;;;3.65;1.58;;;7.70;1.00;;;;;;5021426;28;20029;-73
2021/03/12 07:26:41;;;;;;;8.00;1.20;;;7.80;1.00;;;;;;5026942;28;20057;-72
2021/03/12 07:29:11;;;;;;;3.55;1.63;;;7.90;1.00;;;;;;5023886;28;20033;-72
2021/03/12 07:31:38;;;;;;;2.22;1.00;;;8.00;1.00;;;;;;5007563;28;20026;-72
2021/03/12 07:34:18;;;;;;;4.63;0.90;;;8.20;99.90;;;;;;5012179;28;20049;-72
2021/03/12 07:36:49;;;;;;;2.05;0.60;;;8.10;1.00;;;;;;5015752;28;20488;-72
2021/03/12 07:39:20;;;;;;;1.88;0.95;;;8.10;1.00;;;;;;5018854;28;20116;-73
2021/03/12 07:41:46;;;;;;;;;;;8.00;99.90;;;;;;5017290;28;20018;-73
2021/03/12 07:44:16;;;;;;;4.38;0.73;;;8.00;99.90;;;;;;5018895;28;19959;-72
2021/03/12 07:46:45;;;;;;;2.83;0.60;;;8.00;99.90;;;;;;5016871;28;20097;-73
2021/03/12 07:49:28;;;;;;;2.40;0.90;;;7.80;99.90;;;;;;5019721;28;20275;-72
2021/03/12 07:51:55;;;;;;;2.65;0.50;;;7.70;1.00;;;;;;5022359;28;20013;-72
2021/03/12 07:54:36;;;;;;;1.23;0.57;;;7.40;29.60;;;;;;5021226;28;20037;-73
2021/03/12 07:57:02;;;;;;;1.65;0.80;;;7.20;86.70;;;;;;5012689;28;20498;-72
2021/03/12 07:59:46;;;;;;;2.70;0.65;;;6.90;99.90;;;;;;5016806;28;20053;-73
2021/03/12 08:02:12;;;;;;;3.40;0.70;;;6.70;99.90;;;;;;5019674;28;20488;-73
2021/03/12 08:04:37;;;;;;;2.05;0.47;;;6.70;99.90;;;;;;5023286;28;20493;-73
2021/03/12 08:07:18;;;;;;;3.65;0.90;;;6.70;99.90;;;;;;5019503;28;20061;-73
2021/03/12 08:09:45;;;;;;;2.60;0.68;;;6.80;99.90;;;;;;5016650;28;20029;-73
2021/03/12 08:12:30;;;;;;;1.67;0.65;;;6.80;99.90;;;;;;5021207;28;20057;-72
2021/03/12 08:15:18;;;;;;;2.85;0.90;;;6.90;99.90;;;;;;5020356;28;20029;-73
2021/03/12 08:18:07;;;;;;;2.03;0.60;;;7.10;99.90;;;;;;5015283;28;20018;-72
2021/03/12 08:20:40;;;;;;;2.10;0.52;;;7.30;99.90;;;;;;5021076;28;20517;-72
2021/03/12 08:23:08;;;;;;;8.38;2.15;;;7.40;99.90;;;;;;5010352;28;20481;-73
2021/03/12 08:25:36;;;;;;;2.65;0.77;;;7.40;91.00;;;;;;5021742;28;20018;-72
2021/03/12 08:28:25;;;;;;;1.00;0.55;;;7.50;65.00;;;;;;5029256;28;20022;-70
2021/03/12 08:30:52;;;;;;;6.13;1.38;;;7.50;44.50;;;;;;5005061;28;20034;-73
2021/03/12 08:33:21;;;;;;;4.68;0.88;;;7.80;7.50;;;;;;5015278;28;20026;-72
2021/03/12 08:35:51;;;;;;;1.58;0.75;;;8.00;1.00;;;;;;5010238;28;20535;-72
2021/03/12 08:38:25;;;;;;;3.00;0.88;;;8.20;1.00;;;;;;5008001;28;20061;-73
2021/03/12 08:40:57;;;;;;;3.15;1.05;;;8.40;99.90;;;;;;5012550;28;20025;-72
2021/03/12 08:43:27;;;;;;;3.00;1.10;;;8.50;99.90;;;;;;5015715;28;20092;-73
2021/03/12 08:45:55;;;;;;;2.05;0.73;;;8.40;99.90;;;;;;5017899;28;20033;-72
2021/03/12 08:48:29;;;;;;;3.88;1.00;;;8.40;99.90;;;;;;5015696;28;20030;-72
2021/03/12 08:51:02;;;;;;;4.18;1.02;;;8.50;99.90;;;;;;5012582;28;20045;-72
2021/03/12 08:53:36;;;;;;;4.40;1.00;;;8.50;99.90;;;;;;5012047;28;20026;-72
2021/03/12 08:56:03;;;;;;;2.88;1.20;;;8.60;99.90;;;;;;5017346;28;20052;-72
2021/03/12 08:58:34;;;;;;;4.93;1.38;;;8.60;99.90;;;;;;5013548;28;20022;-72
2021/03/12 09:01:14;;;;;;;3.08;1.05;;;8.60;99.90;;;;;;5016105;28;20101;-72
2021/03/12 09:03:46;;;;;;;4.40;0.80;;;8.60;99.90;;;;;;5009961;28;20123;-73
2021/03/12 09:06:23;;;;;;;2.13;0.90;;;8.70;65.40;;;;;;5011805;28;20053;-73
2021/03/12 09:08:49;;;;;;;3.72;0.70;;;8.70;1.00;;;;;;5011548;28;20022;-72
2021/03/12 09:11:17;;;;;;;3.42;0.75;;;8.70;2.90;;;;;;5011717;28;20044;-73
2021/03/12 09:13:44;;;;;;;2.15;0.77;;;8.70;99.90;;;;;;5011186;28;20044;-73
2021/03/12 09:16:15;;;;;;;2.85;0.65;;;8.90;1.00;;;;;;5018942;28;20034;-72
2021/03/12 09:18:40;;;;;;;4.03;1.17;;;9.00;1.00;;;;;;5004774;28;20484;-72
2021/03/12 09:21:13;;;;;;;2.97;0.88;;;9.20;1.00;;;;;;5013344;28;20105;-71
2021/03/12 09:23:50;;;;;;;2.42;0.98;;;9.20;99.90;;;;;;5006094;28;20028;-72
2021/03/12 09:26:21;;;;;;;4.00;0.75;;;9.30;99.90;;;;;;5012357;28;20072;-74
2021/03/12 09:28:50;;;;;;;2.45;0.77;;;9.10;99.90;;;;;;5012184;28;20022;-73
2021/03/12 09:31:17;;;;;;;2.45;0.77;;;9.20;1.00;;;;;;5013479;28;20486;-72
2021/03/12 09:33:53;;;;;;;1.77;1.00;;;9.20;99.90;;;;;;5020058;28;20510;-72
2021/03/12 09:36:30;;;;;;;1.88;0.68;;;9.40;99.90;;;;;;5014022;28;20061;-73
2021/03/12 09:39:04;;;;;;;1.85;0.65;;;9.60;99.90;;;;;;5016119;28;20065;-72
2021/03/12 09:41:33;;;;;;;5.63;1.10;;;9.70;82.20;;;;;;5015830;28;20030;-72
2021/03/12 09:44:00;;;;;;;2.42;0.60;;;9.70;91.00;;;;;;5015118;28;20458;-72
2021/03/12 09:46:33;;;;;;;3.97;1.08;;;9.80;1.00;;;;;;5013852;28;20041;-73
2021/03/12 09:49:26;;;;;;;3.60;1.10;;;9.60;99.90;;;;;;5011540;28;20022;-72
2021/03/12 09:52:00;;;;;;;3.90;0.68;;;9.60;90.00;;;;;;5022691;28;20094;-73
2021/03/12 09:54:29;;;;;;;4.38;0.80;;;9.60;99.90;;;;;;5022287;28;20113;-71
2021/03/12 09:56:56;;;;;;;3.95;1.10;;;9.60;99.90;;;;;;5023143;28;20033;-73
2021/03/12 09:59:28;;;;;;;3.88;0.85;;;9.60;99.90;;;;;;5007616;28;20711;-73
2021/03/12 10:02:01;;;;;;;5.45;1.10;;;9.60;99.90;;;;;;5015699;28;20401;-71
2021/03/12 10:04:29;;;;;;;5.50;1.02;;;9.30;99.90;;;;;;5015845;28;20516;-72
2021/03/12 10:07:01;;;;;;;3.33;0.80;;;9.30;1.50;;;;;;5020605;28;20022;-72
2021/03/12 10:09:29;;;;;;;4.03;0.85;;;9.40;30.70;;;;;;5021575;28;20018;-73
2021/03/12 10:11:55;;;;;;;4.05;0.70;;;9.50;99.90;;;;;;5029176;28;20133;-72
2021/03/12 10:14:25;;;;;;;4.25;1.30;;;9.80;1.00;;;;;;5019499;28;20030;-72
2021/03/12 10:17:16;;;;;;;1.58;0.60;;;9.50;99.90;;;;;;5026878;28;20026;-72
2021/03/12 10:20:03;;;;;;;3.40;0.60;;;9.60;99.90;;;;;;5018395;28;20084;-71
2021/03/12 10:22:43;;;;;;;1.38;0.90;;;9.50;99.90;;;;;;5020916;28;20060;-71
2021/03/12 10:25:31;;;;;;;4.13;0.70;;;9.70;1.00;;;;;;5022584;28;20109;-73
2021/03/12 10:28:06;;;;;;;1.58;0.60;;;10.10;99.90;;;;;;5014678;28;20014;-72
2021/03/12 10:30:48;;;;;;;4.40;1.50;;;10.50;99.90;;;;;;5016697;28;20069;-72
2021/03/12 10:33:32;;;;;;;1.23;0.40;;;10.80;99.90;;;;;;5014410;28;20076;-73
2021/03/12 10:35:59;;;;;;;2.15;0.40;;;10.80;99.90;;;;;;5006525;28;20032;-73
2021/03/12 10:38:27;;;;;;;1.80;0.57;;;11.30;99.90;;;;;;5014388;28;20036;-72
2021/03/12 10:41:00;;;;;;;2.85;0.75;;;11.40;99.90;;;;;;5019183;28;20025;-72
2021/03/12 10:43:30;;;;;;;1.75;0.50;;;11.40;99.90;;;;;;5023483;28;20431;-72
2021/03/12 10:46:04;;;;;;;0.77;0.50;;;11.60;99.90;;;;;;5013541;28;20467;-73
2021/03/12 10:48:47;;;;;;;2.85;1.13;;;11.40;99.90;;;;;;5014118;28;20021;-73
2021/03/12 10:51:15;;;;;;;1.83;0.77;;;11.20;99.90;;;;;;5014806;28;20418;-72
2021/03/12 10:53:49;;;;;;;2.65;1.33;;;11.10;1.00;;;;;;5013463;28;20149;-77
2021/03/12 10:56:16;;;;;;;2.72;1.67;;;10.90;99.90;;;;;;5058211;23;20050;-67
2021/03/12 10:58:42;;;;;;;2.03;0.77;;;10.90;1.00;;;;;;5045322;28;20120;-68
2021/03/12 11:01:09;;;;;;;3.22;1.42;;;10.80;1.00;;;;;;5042792;28;20060;-68
2021/03/12 11:03:35;;;;;;;1.92;0.50;;;10.70;7.40;;;;;;5032037;28;20053;-69
2021/03/12 11:06:01;;;;;;;1.52;0.43;;;10.60;49.60;;;;;;5035801;28;20029;-68
2021/03/12 11:08:30;;;;;;;1.73;1.60;;;10.70;99.90;;;;;;5036342;28;20010;-69
2021/03/12 11:10:56;;;;;;;1.90;0.70;;;10.50;99.90;;;;;;5034206;28;20045;-70
2021/03/12 11:13:22;;;;;;;0.80;0.40;;;10.50;99.90;;;;;;5045722;28;20026;-69
2021/03/12 11:15:48;;;;;;;1.23;0.75;;;10.50;99.90;;;;;;5042080;28;20036;-70
2021/03/12 11:18:14;;;;;;;1.50;0.45;;;10.70;1.00;;;;;;5024165;28;20116;-70
2021/03/12 11:20:40;;;;;;;2.35;0.90;;;10.90;99.90;;;;;;5019432;28;20096;-71
2021/03/12 11:23:06;;;;;;;2.83;0.50;;;11.10;99.90;;;;;;5019573;28;20030;-69
2021/03/12 11:25:32;;;;;;;1.30;0.50;;;11.40;99.90;;;;;;5018286;28;20026;-69
2021/03/12 11:27:58;;;;;;;4.70;0.88;;;11.60;99.90;;;;;;5021350;28;20045;-71
2021/03/12 11:30:24;;;;;;;2.83;0.57;;;11.40;99.90;;;;;;5020323;28;20030;-69
2021/03/12 11:32:50;;;;;;;1.52;0.50;;;11.40;10.80;;;;;;5016034;28;20058;-69
2021/03/12 11:35:17;;;;;;;1.30;0.40;;;11.50;1.00;;;;;;5015500;28;20057;-70
2021/03/12 11:37:43;;;;;;;1.70;0.50;;;11.20;1.00;;;;;;5014880;28;20375;-70
2021/03/12 11:40:11;;;;;;;2.25;0.63;;;11.10;41.30;;;;;;5018291;28;20049;-70
2021/03/12 11:42:38;;;;;;;2.30;0.43;;;11.30;99.90;;;;;;5013171;28;20127;-71
2021/03/12 11:45:06;;;;;;;1.25;0.40;;;11.30;99.90;;;;;;5022520;28;20037;-70
2021/03/12 11:47:32;;;;;;;1.55;0.60;;;11.30;1.00;;;;;;5016603;28;20021;-70
2021/03/12 11:49:57;;;;;;;1.73;0.50;;;11.40;99.90;;;;;;5023761;28;20034;-70
2021/03/12 11:52:26;;;;;;;3.03;0.75;;;11.50;99.90;;;;;;5015864;28;20037;-71
2021/03/12 11:54:55;;;;;;;1.15;0.57;;;11.40;99.90;;;;;;5021424;28;20478;-69
2021/03/12 11:57:24;;;;;;;2.05;0.60;;;11.80;99.90;;;;;;5021602;28;20030;-68
2021/03/12 11:59:50;;;;;;;3.40;0.60;;;11.80;1.00;;;;;;5013229;28;20071;-69
2021/03/12 12:02:16;;;;;;;1.05;0.52;;;11.80;1.00;;;;;;5015359;28;20026;-69
2021/03/12 12:04:43;;;;;;;2.05;0.50;;;11.80;1.00;;;;;;5018653;28;20025;-71
2021/03/12 12:07:09;;;;;;;1.90;0.40;;;11.70;1.00;;;;;;5019836;28;20022;-71
2021/03/12 12:09:35;;;;;;;3.20;0.55;;;11.70;1.00;;;;;;5013993;28;20058;-70
2021/03/12 12:12:01;;;;;;;1.17;0.60;;;11.70;1.00;;;;;;5014732;28;20374;-70
2021/03/12 12:14:26;;;;;;;2.92;1.10;;;11.80;99.90;;;;;;5014700;28;20022;-71
2021/03/12 12:16:52;;;;;;;1.95;0.73;;;11.90;99.90;;;;;;5027628;28;20025;-71
2021/03/12 12:19:19;;;;;;;3.25;1.17;;;12.00;99.90;;;;;;5014557;28;20034;-70
2021/03/12 12:21:45;;;;;;;4.97;0.70;;;12.60;99.90;;;;;;5014513;28;20021;-70
2021/03/12 12:24:11;;;;;;;1.70;0.75;;;12.80;99.90;;;;;;5014330;28;20033;-71
2021/03/12 12:26:37;;;;;;;4.25;1.23;;;13.10;99.90;;;;;;5022748;28;20026;-70
2021/03/12 12:29:04;;;;;;;2.05;0.60;;;12.70;99.90;;;;;;5012904;28;20501;-69
2021/03/12 12:31:34;;;;;;;4.05;0.80;;;12.80;99.90;;;;;;5020067;28;20064;-70
2021/03/12 12:34:00;;;;;;;2.38;0.73;;;12.90;99.90;;;;;;5024254;28;20028;-68
2021/03/12 12:36:27;;;;;;;1.23;0.60;;;12.30;99.90;;;;;;5022797;28;20026;-68
2021/03/12 12:38:53;;;;;;;1.73;0.85;;;12.00;99.90;;;;;;5021922;28;20030;-71
2021/03/12 12:41:20;;;;;;;1.55;0.63;;;11.30;99.90;;;;;;5016450;28;20069;-70
2021/03/12 12:43:46;;;;;;;1.85;0.68;;;10.90;1.00;;;;;;5029128;28;20225;-70
2021/03/12 12:46:12;;;;;;;2.05;0.60;;;10.70;99.90;;;;;;5015952;28;20489;-71
2021/03/12 12:48:38;;;;;;;3.15;0.93;;;10.70;99.90;;;;;;5019464;28;20052;-71
2021/03/12 12:51:04;;;;;;;2.75;0.90;;;10.80;99.90;;;;;;5015947;28;20030;-72
2021/03/12 12:53:30;;;;;;;5.10;1.02;;;10.80;99.90;;;;;;5017411;28;20034;-70
2021/03/12 12:55:55;;;;;;;1.52;0.50;;;10.90;99.90;;;;;;5014934;28;20037;-70
2021/03/12 12:58:21;;;;;;;2.53;0.65;;;10.50;99.90;;;;;;5022380;28;20026;-69
2021/03/12 13:00:46;;;;;;;2.55;0.90;;;10.50;99.90;;;;;;5013516;28;20041;-70
2021/03/12 13:03:12;;;;;;;2.08;0.77;;;10.50;99.90;;;;;;5012921;28;20042;-70
2021/03/12 13:05:38;;;;;;;1.95;0.90;;;10.50;99.90;;;;;;5023165;28;20072;-70
2021/03/12 13:08:04;;;;;;;3.45;0.70;;;10.50;99.90;;;;;;5022408;28;20366;-71